Townley, Alabama
Current Conditions -  °F | °C
As of 2:15 PM on Friday 21 Nov 2014 (Local Time) from KJFX Reporting Station
Clear Clear  
Wind Chill: 68°   Ceiling: Unl
Heat Index: 68°   Visibility: 10mi
Dew Point: 43°   Wind: 3mph
Humidity: 40%   Direction: 160°SSE
Pressure: 30.32"   Gusts: NA
Location:  33.83°N, 87.43°W
Report Text: KJFX 212015Z AUTO 16003KT 10SM CLR 20/06 A3032 RMK A02 P-128
Loading
Personal Weather Stations






























Interactive Weather Map New forecast layout! Learn more

10-Day Weather Forecast

Advertisements
Track Severe Weather on mobile